sensor_id;sensor_type;location;lat;lon;timestamp;temperature;humidity
23744;DHT22;12052;53.478;10.182;2022-11-15T00:00:44;6.20;99.90
23744;DHT22;12052;53.478;10.182;2022-11-15T00:03:09;6.20;99.90
23744;DHT22;12052;53.478;10.182;2022-11-15T00:05:35;6.10;99.90
23744;DHT22;12052;53.478;10.182;2022-11-15T00:08:01;6.10;99.90
23744;DHT22;12052;53.478;10.182;2022-11-15T00:10:27;6.10;99.90
23744;DHT22;12052;53.478;10.182;2022-11-15T00:12:53;6.10;99.90
23744;DHT22;12052;53.478;10.182;2022-11-15T00:15:18;6.10;99.90
23744;DHT22;12052;53.478;10.182;2022-11-15T00:17:44;6.10;99.90
23744;DHT22;12052;53.478;10.182;2022-11-15T00:20:10;6.10;99.90
23744;DHT22;12052;53.478;10.182;2022-11-15T00:22:36;6.10;99.90
23744;DHT22;12052;53.478;10.182;2022-11-15T00:25:02;6.10;99.90
23744;DHT22;12052;53.478;10.182;2022-11-15T00:27:28;6.10;99.90
23744;DHT22;12052;53.478;10.182;2022-11-15T00:29:54;6.10;99.90
23744;DHT22;12052;53.478;10.182;2022-11-15T00:32:19;6.10;99.90
23744;DHT22;12052;53.478;10.182;2022-11-15T00:34:45;6.10;99.90
23744;DHT22;12052;53.478;10.182;2022-11-15T00:37:10;6.10;99.90
23744;DHT22;12052;53.478;10.182;2022-11-15T00:39:36;6.10;99.90
23744;DHT22;12052;53.478;10.182;2022-11-15T00:42:01;6.00;99.90
23744;DHT22;12052;53.478;10.182;2022-11-15T00:44:27;6.00;99.90
23744;DHT22;12052;53.478;10.182;2022-11-15T00:46:53;6.00;99.90
23744;DHT22;12052;53.478;10.182;2022-11-15T00:49:18;6.00;99.90
23744;DHT22;12052;53.478;10.182;2022-11-15T00:51:44;6.00;99.90
23744;DHT22;12052;53.478;10.182;2022-11-15T00:54:09;6.00;99.90
23744;DHT22;12052;53.478;10.182;2022-11-15T00:56:35;6.00;99.90
23744;DHT22;12052;53.478;10.182;2022-11-15T00:59:00;6.00;99.90
23744;DHT22;12052;53.478;10.182;2022-11-15T01:01:26;6.00;99.90
23744;DHT22;12052;53.478;10.182;2022-11-15T01:03:51;6.00;99.90
23744;DHT22;12052;53.478;10.182;2022-11-15T01:06:17;6.00;99.90
23744;DHT22;12052;53.478;10.182;2022-11-15T01:08:43;6.00;99.90
23744;DHT22;12052;53.478;10.182;2022-11-15T01:11:11;6.00;99.90
23744;DHT22;12052;53.478;10.182;2022-11-15T01:13:38;6.00;99.90
23744;DHT22;12052;53.478;10.182;2022-11-15T01:16:13;6.00;99.90
23744;DHT22;12052;53.478;10.182;2022-11-15T01:18:39;6.00;99.90
23744;DHT22;12052;53.478;10.182;2022-11-15T01:21:10;6.00;99.90
23744;DHT22;12052;53.478;10.182;2022-11-15T01:23:36;6.00;99.90
23744;DHT22;12052;53.478;10.182;2022-11-15T01:26:03;5.90;99.90
23744;DHT22;12052;53.478;10.182;2022-11-15T01:28:31;5.90;99.90
23744;DHT22;12052;53.478;10.182;2022-11-15T01:31:01;5.90;99.90
23744;DHT22;12052;53.478;10.182;2022-11-15T01:33:27;5.90;99.90
23744;DHT22;12052;53.478;10.182;2022-11-15T01:35:53;5.90;99.90
23744;DHT22;12052;53.478;10.182;2022-11-15T01:38:19;5.80;99.90
23744;DHT22;12052;53.478;10.182;2022-11-15T01:40:44;5.80;99.90
23744;DHT22;12052;53.478;10.182;2022-11-15T01:43:32;5.80;99.90
23744;DHT22;12052;53.478;10.182;2022-11-15T01:48:39;5.70;99.90
23744;DHT22;12052;53.478;10.182;2022-11-15T01:51:07;5.70;99.90
23744;DHT22;12052;53.478;10.182;2022-11-15T01:53:35;5.70;99.90
23744;DHT22;12052;53.478;10.182;2022-11-15T01:56:05;5.60;99.90
23744;DHT22;12052;53.478;10.182;2022-11-15T01:58:32;5.60;99.90
23744;DHT22;12052;53.478;10.182;2022-11-15T02:00:58;5.60;99.90
23744;DHT22;12052;53.478;10.182;2022-11-15T02:03:28;5.60;99.90
23744;DHT22;12052;53.478;10.182;2022-11-15T02:05:57;5.60;99.90
23744;DHT22;12052;53.478;10.182;2022-11-15T02:08:23;5.50;99.90
23744;DHT22;12052;53.478;10.182;2022-11-15T02:10:49;5.50;99.90
23744;DHT22;12052;53.478;10.182;2022-11-15T02:13:15;5.50;99.90
23744;DHT22;12052;53.478;10.182;2022-11-15T02:18:35;5.40;99.90
23744;DHT22;12052;53.478;10.182;2022-11-15T02:30:18;5.30;99.90
23744;DHT22;12052;53.478;10.182;2022-11-15T02:43:10;5.20;99.90
23744;DHT22;12052;53.478;10.182;2022-11-15T02:48:34;5.20;99.90
23744;DHT22;12052;53.478;10.182;2022-11-15T02:51:00;5.20;99.90
23744;DHT22;12052;53.478;10.182;2022-11-15T02:53:27;5.20;99.90
23744;DHT22;12052;53.478;10.182;2022-11-15T02:55:53;5.20;99.90
23744;DHT22;12052;53.478;10.182;2022-11-15T02:58:37;5.20;99.90
23744;DHT22;12052;53.478;10.182;2022-11-15T03:04:58;5.10;99.90
23744;DHT22;12052;53.478;10.182;2022-11-15T03:07:54;5.10;99.90
23744;DHT22;12052;53.478;10.182;2022-11-15T03:13:16;5.10;99.90
23744;DHT22;12052;53.478;10.182;2022-11-15T03:15:53;5.10;99.90
23744;DHT22;12052;53.478;10.182;2022-11-15T03:18:33;5.10;99.90
23744;DHT22;12052;53.478;10.182;2022-11-15T03:21:01;5.20;99.90
23744;DHT22;12052;53.478;10.182;2022-11-15T03:23:30;5.20;99.90
23744;DHT22;12052;53.478;10.182;2022-11-15T03:25:57;5.20;99.90
23744;DHT22;12052;53.478;10.182;2022-11-15T03:28:36;5.30;99.90
23744;DHT22;12052;53.478;10.182;2022-11-15T03:31:03;5.30;99.90
23744;DHT22;12052;53.478;10.182;2022-11-15T03:33:53;5.30;99.90
23744;DHT22;12052;53.478;10.182;2022-11-15T03:36:22;5.30;99.90
23744;DHT22;12052;53.478;10.182;2022-11-15T03:38:48;5.40;99.90
23744;DHT22;12052;53.478;10.182;2022-11-15T03:41:39;5.40;99.90
23744;DHT22;12052;53.478;10.182;2022-11-15T03:44:19;5.40;99.90
23744;DHT22;12052;53.478;10.182;2022-11-15T03:46:56;5.40;99.90
23744;DHT22;12052;53.478;10.182;2022-11-15T03:49:27;5.40;99.90
23744;DHT22;12052;53.478;10.182;2022-11-15T03:51:57;5.50;99.90
23744;DHT22;12052;53.478;10.182;2022-11-15T03:54:23;5.40;99.90
23744;DHT22;12052;53.478;10.182;2022-11-15T03:56:48;5.50;99.90
23744;DHT22;12052;53.478;10.182;2022-11-15T03:59:14;5.50;99.90
23744;DHT22;12052;53.478;10.182;2022-11-15T04:01:39;5.50;99.90
23744;DHT22;12052;53.478;10.182;2022-11-15T04:04:05;5.50;99.90
23744;DHT22;12052;53.478;10.182;2022-11-15T04:06:31;5.50;99.90
23744;DHT22;12052;53.478;10.182;2022-11-15T04:08:56;5.50;99.90
23744;DHT22;12052;53.478;10.182;2022-11-15T04:11:22;5.50;99.90
23744;DHT22;12052;53.478;10.182;2022-11-15T04:13:47;5.50;99.90
23744;DHT22;12052;53.478;10.182;2022-11-15T04:16:13;5.50;99.90
23744;DHT22;12052;53.478;10.182;2022-11-15T04:18:38;5.50;99.90
23744;DHT22;12052;53.478;10.182;2022-11-15T04:21:04;5.50;99.90
23744;DHT22;12052;53.478;10.182;2022-11-15T04:24:05;5.50;99.90
23744;DHT22;12052;53.478;10.182;2022-11-15T04:26:40;5.50;99.90
23744;DHT22;12052;53.478;10.182;2022-11-15T04:29:06;5.60;99.90
23744;DHT22;12052;53.478;10.182;2022-11-15T04:31:49;5.60;99.90
23744;DHT22;12052;53.478;10.182;2022-11-15T04:34:15;5.50;99.90
23744;DHT22;12052;53.478;10.182;2022-11-15T04:36:41;5.60;99.90
23744;DHT22;12052;53.478;10.182;2022-11-15T04:39:25;5.60;99.90
23744;DHT22;12052;53.478;10.182;2022-11-15T04:41:50;5.70;99.90
23744;DHT22;12052;53.478;10.182;2022-11-15T04:44:16;5.70;99.90
23744;DHT22;12052;53.478;10.182;2022-11-15T04:46:42;5.80;99.90
23744;DHT22;12052;53.478;10.182;2022-11-15T04:49:07;5.80;99.90
23744;DHT22;12052;53.478;10.182;2022-11-15T04:51:33;5.90;99.90
23744;DHT22;12052;53.478;10.182;2022-11-15T04:53:58;5.90;99.90
23744;DHT22;12052;53.478;10.182;2022-11-15T04:56:24;5.90;99.90
23744;DHT22;12052;53.478;10.182;2022-11-15T04:58:50;6.00;99.90
23744;DHT22;12052;53.478;10.182;2022-11-15T05:01:16;6.00;99.90
23744;DHT22;12052;53.478;10.182;2022-11-15T05:03:42;6.10;99.90
23744;DHT22;12052;53.478;10.182;2022-11-15T05:06:27;6.10;99.90
23744;DHT22;12052;53.478;10.182;2022-11-15T05:08:52;6.10;99.90
23744;DHT22;12052;53.478;10.182;2022-11-15T05:11:18;6.20;99.90
23744;DHT22;12052;53.478;10.182;2022-11-15T05:13:44;6.20;99.90
23744;DHT22;12052;53.478;10.182;2022-11-15T05:16:09;6.30;99.90
23744;DHT22;12052;53.478;10.182;2022-11-15T05:18:35;6.30;99.90
23744;DHT22;12052;53.478;10.182;2022-11-15T05:21:05;6.30;99.90
23744;DHT22;12052;53.478;10.182;2022-11-15T05:23:31;6.30;99.90
23744;DHT22;12052;53.478;10.182;2022-11-15T05:26:00;6.40;99.90
23744;DHT22;12052;53.478;10.182;2022-11-15T05:28:26;6.40;99.90
23744;DHT22;12052;53.478;10.182;2022-11-15T05:30:52;6.40;99.90
23744;DHT22;12052;53.478;10.182;2022-11-15T05:33:17;6.50;99.90
23744;DHT22;12052;53.478;10.182;2022-11-15T05:35:48;6.50;99.90
23744;DHT22;12052;53.478;10.182;2022-11-15T05:38:15;6.50;99.90
23744;DHT22;12052;53.478;10.182;2022-11-15T05:40:41;6.50;99.90
23744;DHT22;12052;53.478;10.182;2022-11-15T05:43:07;6.60;99.90
23744;DHT22;12052;53.478;10.182;2022-11-15T05:45:34;6.60;99.90
23744;DHT22;12052;53.478;10.182;2022-11-15T05:48:01;6.60;99.90
23744;DHT22;12052;53.478;10.182;2022-11-15T05:50:29;6.60;99.90
23744;DHT22;12052;53.478;10.182;2022-11-15T05:52:55;6.60;99.90
23744;DHT22;12052;53.478;10.182;2022-11-15T05:55:20;6.60;99.90
23744;DHT22;12052;53.478;10.182;2022-11-15T05:57:46;6.60;99.90
23744;DHT22;12052;53.478;10.182;2022-11-15T06:00:12;6.60;99.90
23744;DHT22;12052;53.478;10.182;2022-11-15T06:02:38;6.60;99.90
23744;DHT22;12052;53.478;10.182;2022-11-15T06:05:04;6.50;99.90
23744;DHT22;12052;53.478;10.182;2022-11-15T06:07:30;6.50;99.90
23744;DHT22;12052;53.478;10.182;2022-11-15T06:09:55;6.60;99.90
23744;DHT22;12052;53.478;10.182;2022-11-15T06:12:21;6.50;99.90
23744;DHT22;12052;53.478;10.182;2022-11-15T06:14:47;6.50;99.90
23744;DHT22;12052;53.478;10.182;2022-11-15T06:17:12;6.60;99.90
23744;DHT22;12052;53.478;10.182;2022-11-15T06:19:38;6.50;99.90
23744;DHT22;12052;53.478;10.182;2022-11-15T06:22:04;6.60;99.90
23744;DHT22;12052;53.478;10.182;2022-11-15T06:24:29;6.50;99.90
23744;DHT22;12052;53.478;10.182;2022-11-15T06:26:55;6.60;99.90
23744;DHT22;12052;53.478;10.182;2022-11-15T06:29:20;6.60;99.90
23744;DHT22;12052;53.478;10.182;2022-11-15T06:31:46;6.50;99.90
23744;DHT22;12052;53.478;10.182;2022-11-15T06:34:11;6.60;99.90
23744;DHT22;12052;53.478;10.182;2022-11-15T06:36:37;6.50;99.90
23744;DHT22;12052;53.478;10.182;2022-11-15T06:39:04;6.60;99.90
23744;DHT22;12052;53.478;10.182;2022-11-15T06:41:29;6.60;99.90
23744;DHT22;12052;53.478;10.182;2022-11-15T06:43:56;6.60;99.90
23744;DHT22;12052;53.478;10.182;2022-11-15T06:46:21;6.60;99.90
23744;DHT22;12052;53.478;10.182;2022-11-15T06:48:47;6.60;99.90
23744;DHT22;12052;53.478;10.182;2022-11-15T06:51:14;6.60;99.90
23744;DHT22;12052;53.478;10.182;2022-11-15T06:53:40;6.60;99.90
23744;DHT22;12052;53.478;10.182;2022-11-15T06:56:06;6.60;99.90
23744;DHT22;12052;53.478;10.182;2022-11-15T06:58:32;6.60;99.90
23744;DHT22;12052;53.478;10.182;2022-11-15T07:01:00;6.60;99.90
23744;DHT22;12052;53.478;10.182;2022-11-15T07:03:25;6.70;99.90
23744;DHT22;12052;53.478;10.182;2022-11-15T07:05:53;6.70;99.90
23744;DHT22;12052;53.478;10.182;2022-11-15T07:08:20;6.70;99.90
23744;DHT22;12052;53.478;10.182;2022-11-15T07:10:46;6.70;99.90
23744;DHT22;12052;53.478;10.182;2022-11-15T07:13:11;6.60;99.90
23744;DHT22;12052;53.478;10.182;2022-11-15T07:15:37;6.70;99.90
23744;DHT22;12052;53.478;10.182;2022-11-15T07:18:02;6.70;99.90
23744;DHT22;12052;53.478;10.182;2022-11-15T07:20:28;6.70;99.90
23744;DHT22;12052;53.478;10.182;2022-11-15T07:23:00;6.80;99.90
23744;DHT22;12052;53.478;10.182;2022-11-15T07:25:26;6.80;99.90
23744;DHT22;12052;53.478;10.182;2022-11-15T07:27:58;6.80;99.90
23744;DHT22;12052;53.478;10.182;2022-11-15T07:30:25;6.80;99.90
23744;DHT22;12052;53.478;10.182;2022-11-15T07:32:58;6.80;99.90
23744;DHT22;12052;53.478;10.182;2022-11-15T07:35:25;6.80;99.90
23744;DHT22;12052;53.478;10.182;2022-11-15T07:37:58;6.80;99.90
23744;DHT22;12052;53.478;10.182;2022-11-15T07:40:26;6.80;99.90
23744;DHT22;12052;53.478;10.182;2022-11-15T07:42:52;6.80;99.90
23744;DHT22;12052;53.478;10.182;2022-11-15T07:45:23;6.90;99.90
23744;DHT22;12052;53.478;10.182;2022-11-15T07:47:51;6.90;99.90
23744;DHT22;12052;53.478;10.182;2022-11-15T07:50:17;6.90;99.90
23744;DHT22;12052;53.478;10.182;2022-11-15T07:52:44;6.90;99.90
23744;DHT22;12052;53.478;10.182;2022-11-15T07:55:09;6.90;99.90
23744;DHT22;12052;53.478;10.182;2022-11-15T07:57:35;7.00;99.90
23744;DHT22;12052;53.478;10.182;2022-11-15T08:00:02;7.00;99.90
23744;DHT22;12052;53.478;10.182;2022-11-15T08:02:28;7.00;99.90
23744;DHT22;12052;53.478;10.182;2022-11-15T08:04:54;7.00;99.90
23744;DHT22;12052;53.478;10.182;2022-11-15T08:07:19;7.00;99.90
23744;DHT22;12052;53.478;10.182;2022-11-15T08:09:45;7.00;99.90
23744;DHT22;12052;53.478;10.182;2022-11-15T08:12:10;7.00;99.90
23744;DHT22;12052;53.478;10.182;2022-11-15T08:14:36;7.10;99.90
23744;DHT22;12052;53.478;10.182;2022-11-15T08:17:02;7.10;99.90
23744;DHT22;12052;53.478;10.182;2022-11-15T08:19:27;7.10;99.90
23744;DHT22;12052;53.478;10.182;2022-11-15T08:21:53;7.10;99.90
23744;DHT22;12052;53.478;10.182;2022-11-15T08:24:19;7.10;99.90
23744;DHT22;12052;53.478;10.182;2022-11-15T08:26:45;7.10;99.90
23744;DHT22;12052;53.478;10.182;2022-11-15T08:29:11;7.10;99.90
23744;DHT22;12052;53.478;10.182;2022-11-15T08:31:37;7.20;99.90
23744;DHT22;12052;53.478;10.182;2022-11-15T08:34:03;7.10;99.90
23744;DHT22;12052;53.478;10.182;2022-11-15T08:36:29;7.20;99.90
23744;DHT22;12052;53.478;10.182;2022-11-15T08:38:55;7.20;99.90
23744;DHT22;12052;53.478;10.182;2022-11-15T08:41:30;7.20;99.90
23744;DHT22;12052;53.478;10.182;2022-11-15T08:43:56;7.20;99.90
23744;DHT22;12052;53.478;10.182;2022-11-15T08:46:22;7.20;99.90
23744;DHT22;12052;53.478;10.182;2022-11-15T08:48:48;7.20;99.90
23744;DHT22;12052;53.478;10.182;2022-11-15T08:51:13;7.30;99.90
23744;DHT22;12052;53.478;10.182;2022-11-15T08:53:39;7.30;99.90
23744;DHT22;12052;53.478;10.182;2022-11-15T08:56:09;7.50;99.90
23744;DHT22;12052;53.478;10.182;2022-11-15T08:58:35;7.60;99.90
23744;DHT22;12052;53.478;10.182;2022-11-15T09:01:02;7.70;99.90
23744;DHT22;12052;53.478;10.182;2022-11-15T09:03:27;8.00;99.90
23744;DHT22;12052;53.478;10.182;2022-11-15T09:06:00;8.20;99.90
23744;DHT22;12052;53.478;10.182;2022-11-15T09:08:30;8.40;99.90
23744;DHT22;12052;53.478;10.182;2022-11-15T09:10:57;8.50;99.90
23744;DHT22;12052;53.478;10.182;2022-11-15T09:13:22;8.60;99.90
23744;DHT22;12052;53.478;10.182;2022-11-15T09:15:48;8.70;99.90
23744;DHT22;12052;53.478;10.182;2022-11-15T09:18:14;8.80;99.90
23744;DHT22;12052;53.478;10.182;2022-11-15T09:20:39;8.80;99.90
23744;DHT22;12052;53.478;10.182;2022-11-15T09:23:05;8.80;99.90
23744;DHT22;12052;53.478;10.182;2022-11-15T09:25:31;8.80;99.90
23744;DHT22;12052;53.478;10.182;2022-11-15T09:27:57;8.80;99.90
23744;DHT22;12052;53.478;10.182;2022-11-15T09:30:24;8.80;99.90
23744;DHT22;12052;53.478;10.182;2022-11-15T09:32:50;8.80;99.90
23744;DHT22;12052;53.478;10.182;2022-11-15T09:35:16;8.80;99.90
23744;DHT22;12052;53.478;10.182;2022-11-15T09:37:42;8.90;99.90
23744;DHT22;12052;53.478;10.182;2022-11-15T09:40:13;8.90;99.90
23744;DHT22;12052;53.478;10.182;2022-11-15T09:50:51;8.90;99.90
23744;DHT22;12052;53.478;10.182;2022-11-15T09:56:28;9.00;99.90
23744;DHT22;12052;53.478;10.182;2022-11-15T10:04:25;9.10;99.90
23744;DHT22;12052;53.478;10.182;2022-11-15T10:07:06;9.10;99.90
23744;DHT22;12052;53.478;10.182;2022-11-15T10:09:47;9.20;99.90
23744;DHT22;12052;53.478;10.182;2022-11-15T10:12:15;9.20;99.90
23744;DHT22;12052;53.478;10.182;2022-11-15T10:14:41;9.20;99.90
23744;DHT22;12052;53.478;10.182;2022-11-15T10:19:41;9.30;99.90
23744;DHT22;12052;53.478;10.182;2022-11-15T10:24:42;9.30;99.90
23744;DHT22;12052;53.478;10.182;2022-11-15T10:27:12;9.30;99.90
23744;DHT22;12052;53.478;10.182;2022-11-15T10:29:46;9.40;99.90
23744;DHT22;12052;53.478;10.182;2022-11-15T10:32:14;9.30;99.90
23744;DHT22;12052;53.478;10.182;2022-11-15T10:34:40;9.40;99.90
23744;DHT22;12052;53.478;10.182;2022-11-15T10:37:05;9.40;99.90
23744;DHT22;12052;53.478;10.182;2022-11-15T10:39:31;9.50;99.90
23744;DHT22;12052;53.478;10.182;2022-11-15T10:42:18;9.50;99.90
23744;DHT22;12052;53.478;10.182;2022-11-15T10:44:50;9.50;99.90
23744;DHT22;12052;53.478;10.182;2022-11-15T10:47:30;9.60;99.90
23744;DHT22;12052;53.478;10.182;2022-11-15T10:52:53;9.60;99.90
23744;DHT22;12052;53.478;10.182;2022-11-15T10:55:27;9.60;99.90
23744;DHT22;12052;53.478;10.182;2022-11-15T10:58:05;9.60;99.90
23744;DHT22;12052;53.478;10.182;2022-11-15T11:00:36;9.70;99.90
23744;DHT22;12052;53.478;10.182;2022-11-15T11:03:11;9.70;99.90
23744;DHT22;12052;53.478;10.182;2022-11-15T11:05:45;9.80;99.90
23744;DHT22;12052;53.478;10.182;2022-11-15T11:10:37;9.90;99.90
23744;DHT22;12052;53.478;10.182;2022-11-15T11:13:22;10.00;99.90
23744;DHT22;12052;53.478;10.182;2022-11-15T11:15:54;10.00;99.90
23744;DHT22;12052;53.478;10.182;2022-11-15T11:18:36;10.10;99.90
23744;DHT22;12052;53.478;10.182;2022-11-15T11:21:07;10.10;99.90
23744;DHT22;12052;53.478;10.182;2022-11-15T11:26:42;10.10;99.90
23744;DHT22;12052;53.478;10.182;2022-11-15T11:47:40;10.50;99.90
23744;DHT22;12052;53.478;10.182;2022-11-15T11:50:19;10.50;99.90
23744;DHT22;12052;53.478;10.182;2022-11-15T11:53:05;10.60;99.90
23744;DHT22;12052;53.478;10.182;2022-11-15T11:55:39;10.60;99.90
23744;DHT22;12052;53.478;10.182;2022-11-15T12:14:50;10.90;99.90
23744;DHT22;12052;53.478;10.182;2022-11-15T12:17:21;10.90;99.90
23744;DHT22;12052;53.478;10.182;2022-11-15T12:19:48;11.00;99.90
23744;DHT22;12052;53.478;10.182;2022-11-15T12:22:21;11.00;99.90
23744;DHT22;12052;53.478;10.182;2022-11-15T12:25:05;11.00;99.90
23744;DHT22;12052;53.478;10.182;2022-11-15T12:27:46;11.00;99.90
23744;DHT22;12052;53.478;10.182;2022-11-15T12:30:19;11.10;99.90
23744;DHT22;12052;53.478;10.182;2022-11-15T12:32:59;11.20;99.90
23744;DHT22;12052;53.478;10.182;2022-11-15T12:35:35;11.20;99.90
23744;DHT22;12052;53.478;10.182;2022-11-15T12:38:02;11.30;99.90
23744;DHT22;12052;53.478;10.182;2022-11-15T12:40:34;11.30;99.90
23744;DHT22;12052;53.478;10.182;2022-11-15T12:45:43;11.30;99.90
23744;DHT22;12052;53.478;10.182;2022-11-15T12:50:56;11.40;99.90
23744;DHT22;12052;53.478;10.182;2022-11-15T12:58:50;11.50;99.90
23744;DHT22;12052;53.478;10.182;2022-11-15T13:06:46;11.50;99.90
23744;DHT22;12052;53.478;10.182;2022-11-15T13:11:59;11.50;99.90
23744;DHT22;12052;53.478;10.182;2022-11-15T13:28:47;11.50;99.90
23744;DHT22;12052;53.478;10.182;2022-11-15T13:31:00;11.50;99.90
23744;DHT22;12052;53.478;10.182;2022-11-15T13:33:35;11.50;99.90
23744;DHT22;12052;53.478;10.182;2022-11-15T13:36:34;11.50;99.90
23744;DHT22;12052;53.478;10.182;2022-11-15T13:39:14;11.50;99.90
23744;DHT22;12052;53.478;10.182;2022-11-15T13:41:50;11.50;99.90
23744;DHT22;12052;53.478;10.182;2022-11-15T13:44:30;11.50;99.90
23744;DHT22;12052;53.478;10.182;2022-11-15T13:47:15;11.50;99.90
23744;DHT22;12052;53.478;10.182;2022-11-15T13:49:44;11.50;99.90
23744;DHT22;12052;53.478;10.182;2022-11-15T13:52:16;11.60;99.90
23744;DHT22;12052;53.478;10.182;2022-11-15T13:59:55;11.60;99.90
23744;DHT22;12052;53.478;10.182;2022-11-15T14:02:31;11.60;99.90
23744;DHT22;12052;53.478;10.182;2022-11-15T14:05:01;11.50;99.90
23744;DHT22;12052;53.478;10.182;2022-11-15T14:07:28;11.60;99.90
23744;DHT22;12052;53.478;10.182;2022-11-15T14:09:54;11.50;99.90
23744;DHT22;12052;53.478;10.182;2022-11-15T14:12:31;11.60;99.90
23744;DHT22;12052;53.478;10.182;2022-11-15T14:14:59;11.60;99.90
23744;DHT22;12052;53.478;10.182;2022-11-15T14:19:53;11.50;99.90
23744;DHT22;12052;53.478;10.182;2022-11-15T14:22:29;11.60;99.90
23744;DHT22;12052;53.478;10.182;2022-11-15T14:25:07;11.50;99.90
23744;DHT22;12052;53.478;10.182;2022-11-15T14:27:33;11.50;99.90
23744;DHT22;12052;53.478;10.182;2022-11-15T14:29:59;11.50;99.90
23744;DHT22;12052;53.478;10.182;2022-11-15T14:32:28;11.50;99.90
23744;DHT22;12052;53.478;10.182;2022-11-15T14:34:58;11.50;99.90
23744;DHT22;12052;53.478;10.182;2022-11-15T14:37:26;11.50;99.90
23744;DHT22;12052;53.478;10.182;2022-11-15T14:39:53;11.40;99.90
23744;DHT22;12052;53.478;10.182;2022-11-15T14:42:20;11.40;99.90
23744;DHT22;12052;53.478;10.182;2022-11-15T14:44:47;11.40;99.90
23744;DHT22;12052;53.478;10.182;2022-11-15T14:47:13;11.40;99.90
23744;DHT22;12052;53.478;10.182;2022-11-15T14:49:39;11.40;99.90
23744;DHT22;12052;53.478;10.182;2022-11-15T14:52:24;11.40;99.90
23744;DHT22;12052;53.478;10.182;2022-11-15T14:54:50;11.30;99.90
23744;DHT22;12052;53.478;10.182;2022-11-15T14:57:16;11.30;99.90
23744;DHT22;12052;53.478;10.182;2022-11-15T14:59:41;11.20;99.90
23744;DHT22;12052;53.478;10.182;2022-11-15T15:02:23;11.20;99.90
23744;DHT22;12052;53.478;10.182;2022-11-15T15:04:49;11.20;99.90
23744;DHT22;12052;53.478;10.182;2022-11-15T15:07:16;11.10;99.90
23744;DHT22;12052;53.478;10.182;2022-11-15T15:09:42;11.10;99.90
23744;DHT22;12052;53.478;10.182;2022-11-15T15:12:28;11.00;99.90
23744;DHT22;12052;53.478;10.182;2022-11-15T15:14:54;11.00;99.90
23744;DHT22;12052;53.478;10.182;2022-11-15T15:17:20;11.00;99.90
23744;DHT22;12052;53.478;10.182;2022-11-15T15:19:45;11.00;99.90
23744;DHT22;12052;53.478;10.182;2022-11-15T15:22:16;10.90;99.90
23744;DHT22;12052;53.478;10.182;2022-11-15T15:24:45;10.90;99.90
23744;DHT22;12052;53.478;10.182;2022-11-15T15:27:12;10.80;99.90
23744;DHT22;12052;53.478;10.182;2022-11-15T15:29:38;10.80;99.90
23744;DHT22;12052;53.478;10.182;2022-11-15T15:32:04;10.80;99.90
23744;DHT22;12052;53.478;10.182;2022-11-15T15:34:31;10.80;99.90
23744;DHT22;12052;53.478;10.182;2022-11-15T15:39:32;10.70;99.90
23744;DHT22;12052;53.478;10.182;2022-11-15T15:41:58;10.60;99.90
23744;DHT22;12052;53.478;10.182;2022-11-15T15:44:24;10.60;99.90
23744;DHT22;12052;53.478;10.182;2022-11-15T15:46:49;10.60;99.90
23744;DHT22;12052;53.478;10.182;2022-11-15T15:49:15;10.60;99.90
23744;DHT22;12052;53.478;10.182;2022-11-15T15:51:40;10.50;99.90
23744;DHT22;12052;53.478;10.182;2022-11-15T15:54:06;10.50;99.90
23744;DHT22;12052;53.478;10.182;2022-11-15T15:56:31;10.50;99.90
23744;DHT22;12052;53.478;10.182;2022-11-15T15:58:57;10.40;99.90
23744;DHT22;12052;53.478;10.182;2022-11-15T16:01:23;10.40;99.90
23744;DHT22;12052;53.478;10.182;2022-11-15T16:03:50;10.40;99.90
23744;DHT22;12052;53.478;10.182;2022-11-15T16:06:36;10.30;99.90
23744;DHT22;12052;53.478;10.182;2022-11-15T16:09:03;10.30;99.90
23744;DHT22;12052;53.478;10.182;2022-11-15T16:11:29;10.30;99.90
23744;DHT22;12052;53.478;10.182;2022-11-15T16:13:54;10.30;99.90
23744;DHT22;12052;53.478;10.182;2022-11-15T16:16:21;10.30;99.90
23744;DHT22;12052;53.478;10.182;2022-11-15T16:18:47;10.30;99.90
23744;DHT22;12052;53.478;10.182;2022-11-15T16:21:13;10.30;99.90
23744;DHT22;12052;53.478;10.182;2022-11-15T16:23:38;10.30;99.90
23744;DHT22;12052;53.478;10.182;2022-11-15T16:26:23;10.30;99.90
23744;DHT22;12052;53.478;10.182;2022-11-15T16:28:49;10.30;99.90
23744;DHT22;12052;53.478;10.182;2022-11-15T16:31:16;10.30;99.90
23744;DHT22;12052;53.478;10.182;2022-11-15T16:33:44;10.30;99.90
23744;DHT22;12052;53.478;10.182;2022-11-15T16:36:21;10.30;99.90
23744;DHT22;12052;53.478;10.182;2022-11-15T16:38:47;10.30;99.90
23744;DHT22;12052;53.478;10.182;2022-11-15T16:41:14;10.30;99.90
23744;DHT22;12052;53.478;10.182;2022-11-15T16:43:40;10.30;99.90
23744;DHT22;12052;53.478;10.182;2022-11-15T16:46:14;10.40;99.90
23744;DHT22;12052;53.478;10.182;2022-11-15T16:48:41;10.40;99.90
23744;DHT22;12052;53.478;10.182;2022-11-15T16:51:06;10.40;99.90
23744;DHT22;12052;53.478;10.182;2022-11-15T16:53:32;10.40;99.90
23744;DHT22;12052;53.478;10.182;2022-11-15T16:55:58;10.50;99.90
23744;DHT22;12052;53.478;10.182;2022-11-15T16:58:24;10.50;99.90
23744;DHT22;12052;53.478;10.182;2022-11-15T17:00:54;10.50;99.90
23744;DHT22;12052;53.478;10.182;2022-11-15T17:03:21;10.50;99.90
23744;DHT22;12052;53.478;10.182;2022-11-15T17:05:46;10.50;99.90
23744;DHT22;12052;53.478;10.182;2022-11-15T17:08:12;10.50;99.90
23744;DHT22;12052;53.478;10.182;2022-11-15T17:10:39;10.60;99.90
23744;DHT22;12052;53.478;10.182;2022-11-15T17:13:07;10.60;99.90
23744;DHT22;12052;53.478;10.182;2022-11-15T17:15:33;10.60;99.90
23744;DHT22;12052;53.478;10.182;2022-11-15T17:17:58;10.60;99.90
23744;DHT22;12052;53.478;10.182;2022-11-15T17:20:25;10.60;99.90
23744;DHT22;12052;53.478;10.182;2022-11-15T17:22:51;10.60;99.90
23744;DHT22;12052;53.478;10.182;2022-11-15T17:25:17;10.60;99.90
23744;DHT22;12052;53.478;10.182;2022-11-15T17:27:43;10.60;99.90
23744;DHT22;12052;53.478;10.182;2022-11-15T17:30:11;10.60;99.90
23744;DHT22;12052;53.478;10.182;2022-11-15T17:32:37;10.50;99.90
23744;DHT22;12052;53.478;10.182;2022-11-15T17:35:04;10.50;99.90
23744;DHT22;12052;53.478;10.182;2022-11-15T17:37:31;10.50;99.90
23744;DHT22;12052;53.478;10.182;2022-11-15T17:39:57;10.50;99.90
23744;DHT22;12052;53.478;10.182;2022-11-15T17:42:23;10.60;99.90
23744;DHT22;12052;53.478;10.182;2022-11-15T17:44:48;10.60;99.90
23744;DHT22;12052;53.478;10.182;2022-11-15T17:47:14;10.60;99.90
23744;DHT22;12052;53.478;10.182;2022-11-15T17:49:40;10.60;99.90
23744;DHT22;12052;53.478;10.182;2022-11-15T17:52:06;10.60;99.90
23744;DHT22;12052;53.478;10.182;2022-11-15T17:54:32;10.60;99.90
23744;DHT22;12052;53.478;10.182;2022-11-15T17:56:57;10.50;99.90